Darstellungsparameter: Aktuell verwendete Einstellungen:
Skalierung der Graphiken ... ?
xyx+y,   Skalierungsfaktor:      Skalierung: Modus: x, Faktor: 1
Darstellungszeitraum ... ?
Vom - - bis: - -   Zeitraum: 25.03.2020 - 24.04.2020
Min/Max/Avg-Anzeige ... ?
Zeige MMA aktuell
Zeige MMA Monat
Zeige MMA alles
Zeige --A aktuell
Zeige --A Monat
Zeige --A alles
Keine MMA-Anzeige
MMA:
Keine MMA-Graphiken
MMA-Basis: 25.03.2020 - 24.04.2020
Quicknavigation für Darstellung... ?
Tage:      1T, 2T, 3T, 5T -1T -2T -3T -5T +1T +2T +3T +5T
Wochen: 1W, 2W, 3W -1W -2W -3W +1W +2W +3W
Monate: 1M, 3M, 6M -1M -3M -6M +1M +3M +6M
Jahre:    1J, 3J, 5J, 10J -1J -3J -5J -10J +1J +3J +5J +10J
Nutze für die Darstellung ... ?
Originaldaten oder ...
Mittelwerte Minima Maxima auf...
Stundenbasis Tagesbasis Wochenbasis
Monatsbasis Jahresbasis      Datenbasis: Mittelwerte auf Stundenbasis
Darstellen als:
Statistik (Auto) Statistik J:M      Darstellung:
Zur Graphik,    zurück zur Übersicht aller Sensoren.
 
Tabellarische Datenbersicht: ?
 
Sensor: Nr:Datum:Temp:Feuchte:Taupunkt:
Aussen-T/F 1 25-03-2020 00:00:00 -0.625 C 69.5000 % -5.5 C
2 25-03-2020 01:00:00 -0.70833 C 68.5000 % -5.77 C
3 25-03-2020 02:00:00 -0.93333 C 67.6667 % -6.15 C
4 25-03-2020 03:00:00 -1.15833 C 68.5833 % -6.19 C
5 25-03-2020 04:00:00 -1.91667 C 72.5833 % -6.18 C
6 25-03-2020 05:00:00 -2.48333 C 74.3333 % -6.41 C
7 25-03-2020 06:00:00 -3.025 C 77.6667 % -6.37 C
8 25-03-2020 07:00:00 -2.86667 C 80.0833 % -5.81 C
9 25-03-2020 08:00:00 -1.975 C 76.3333 % -5.57 C
10 25-03-2020 09:00:00 0.10833 C 68.6667 % -4.95 C
11 25-03-2020 10:00:00 4.20833 C 47.4167 % -5.96 C
12 25-03-2020 11:00:00 6.46667 C 38.0833 % -6.77 C
13 25-03-2020 12:00:00 8.375 C 31.8333 % -7.4 C
14 25-03-2020 13:00:00 9.775 C 28.0000 % -7.84 C
15 25-03-2020 14:00:00 10.125 C 26.5000 % -8.24 C
16 25-03-2020 15:00:00 10.8 C 26.6667 % -7.58 C
17 25-03-2020 16:00:00 12.03333 C 23.2500 % -8.29 C
18 25-03-2020 17:00:00 12.09167 C 23.7500 % -7.97 C
19 25-03-2020 18:00:00 10.28333 C 32.2500 % -5.56 C
20 25-03-2020 19:00:00 6.25833 C 46.1667 % -4.44 C
21 25-03-2020 20:00:00 4.81667 C 50.5000 % -4.58 C
22 25-03-2020 21:00:00 5.13333 C 47.5000 % -5.09 C
23 25-03-2020 22:00:00 3.25 C 57.3333 % -4.36 C
24 25-03-2020 23:00:00 2.01667 C 62.2500 % -4.43 C
25 26-03-2020 00:00:00 1.325 C 64.5000 % -4.62 C
Sensor: Nr:Datum:Temp:Feuchte:Taupunkt:
Aussen-T/F 26 26-03-2020 01:00:00 0.875 C 65.4167 % -4.86 C
27 26-03-2020 02:00:00 0.66667 C 65.3333 % -5.07 C
28 26-03-2020 03:00:00 0.35833 C 66.4167 % -5.15 C
29 26-03-2020 04:00:00 0.05 C 68.2500 % -5.09 C
30 26-03-2020 05:00:00 -0.06667 C 69.5000 % -4.97 C
31 26-03-2020 06:00:00 -0.30833 C 70.3333 % -5.04 C
32 26-03-2020 07:00:00 0.21667 C 68.5000 % -4.88 C
33 26-03-2020 08:00:00 1.95833 C 60.8333 % -4.79 C
34 26-03-2020 09:00:00 3.79167 C 54.3333 % -4.56 C
35 26-03-2020 10:00:00 5.625 C 48.4167 % -4.39 C
36 26-03-2020 11:00:00 7.03333 C 44.6667 % -4.17 C
37 26-03-2020 12:00:00 8.575 C 41.2500 % -3.83 C
38 26-03-2020 13:00:00 9.725 C 39.3333 % -3.43 C
39 26-03-2020 14:00:00 10.54167 C 38.9167 % -2.84 C
40 26-03-2020 15:00:00 11.33333 C 38.5000 % -2.28 C
41 26-03-2020 16:00:00 11.85833 C 40.0000 % -1.29 C
42 26-03-2020 17:00:00 11.30833 C 42.2500 % -1.04 C
43 26-03-2020 18:00:00 10.51667 C 46.0000 % -0.6 C
44 26-03-2020 19:00:00 7.54167 C 59.3333 % 0.14 C
45 26-03-2020 20:00:00 5.7 C 66.6667 % -0.01 C
46 26-03-2020 21:00:00 4.70833 C 70.8333 % -0.12 C
47 26-03-2020 22:00:00 4.28333 C 73.2500 % -0.07 C
48 26-03-2020 23:00:00 4.09167 C 74.3333 % -0.05 C
49 27-03-2020 00:00:00 3.825 C 75.6667 % -0.07 C
50 27-03-2020 01:00:00 3.24167 C 78.2500 % -0.17 C
Sensor: Nr:Datum:Temp:Feuchte:Taupunkt:
Aussen-T/F 51 27-03-2020 02:00:00 2.91667 C 79.1667 % -0.33 C
52 27-03-2020 03:00:00 2.43333 C 80.1667 % -0.63 C
53 27-03-2020 04:00:00 2.1 C 81.1667 % -0.78 C
54 27-03-2020 05:00:00 1.39167 C 83.0000 % -1.17 C
55 27-03-2020 06:00:00 0.74167 C 85.8333 % -1.35 C
56 27-03-2020 07:00:00 1.025 C 87.3333 % -0.84 C
57 27-03-2020 08:00:00 2.1 C 86.1667 % 0.04 C
58 27-03-2020 09:00:00 3.93333 C 81.0833 % 0.99 C
59 27-03-2020 10:00:00 7.24167 C 68.0833 % 1.76 C
60 27-03-2020 11:00:00 10.925 C 53.1667 % 1.78 C
61 27-03-2020 12:00:00 13.36667 C 45.6667 % 1.9 C
62 27-03-2020 13:00:00 14.76667 C 43.2500 % 2.41 C
63 27-03-2020 14:00:00 15.425 C 42.0000 % 2.59 C
64 27-03-2020 15:00:00 15.89167 C 41.7500 % 2.93 C
65 27-03-2020 16:00:00 16.65 C 40.4167 % 3.15 C
66 27-03-2020 17:00:00 16.525 C 40.5000 % 3.07 C
67 27-03-2020 18:00:00 14.875 C 49.3333 % 4.37 C
68 27-03-2020 19:00:00 11.05 C 60.8333 % 3.79 C
69 27-03-2020 20:00:00 9.46667 C 67.5833 % 3.78 C
70 27-03-2020 21:00:00 7.94167 C 73.4167 % 3.49 C
71 27-03-2020 22:00:00 6.68333 C 77.5833 % 3.05 C
72 27-03-2020 23:00:00 5.975 C 80.5833 % 2.9 C
73 28-03-2020 00:00:00 5.66667 C 82.2500 % 2.88 C
74 28-03-2020 01:00:00 5.075 C 83.5000 % 2.52 C
75 28-03-2020 02:00:00 4.34167 C 86.0833 % 2.23 C
Sensor: Nr:Datum:Temp:Feuchte:Taupunkt:
Aussen-T/F 76 28-03-2020 03:00:00 3.75 C 87.0833 % 1.8 C
77 28-03-2020 04:00:00 2.775 C 89.3333 % 1.2 C
78 28-03-2020 05:00:00 2.31667 C 90.8333 % 0.98 C
79 28-03-2020 06:00:00 1.86667 C 92.0000 % 0.71 C
80 28-03-2020 07:00:00 2.41667 C 93.0833 % 1.42 C
81 28-03-2020 08:00:00 3.40833 C 93.0000 % 2.39 C
82 28-03-2020 09:00:00 6.05 C 90.4167 % 4.6 C
83 28-03-2020 10:00:00 9.85833 C 74.3333 % 5.51 C
84 28-03-2020 11:00:00 13.38333 C 59.9167 % 5.77 C
85 28-03-2020 12:00:00 16.03333 C 49.3333 % 5.43 C
86 28-03-2020 13:00:00 17.66667 C 43.7500 % 5.19 C
87 28-03-2020 14:00:00 18.25 C 42.5833 % 5.33 C
88 28-03-2020 15:00:00 18.325 C 40.1667 % 4.56 C
89 28-03-2020 16:00:00 18.05 C 38.3333 % 3.65 C
90 28-03-2020 17:00:00 16.825 C 35.2500 % 1.39 C
91 28-03-2020 18:00:00 14.525 C 39.9167 % 1.07 C
92 28-03-2020 19:00:00 12.35833 C 46.5833 % 1.26 C
93 28-03-2020 20:00:00 10.94167 C 51.5833 % 1.37 C
94 28-03-2020 21:00:00 9.40833 C 58.2500 % 1.63 C
95 28-03-2020 22:00:00 9.03333 C 61.6667 % 2.08 C
96 28-03-2020 23:00:00 8.04167 C 70.4167 % 3 C
97 29-03-2020 00:00:00 7.14167 C 73.7500 % 2.78 C
98 29-03-2020 01:00:00 6.59167 C 72.0833 % 1.93 C
99 29-03-2020 02:00:00 5.74167 C 70.5000 % 0.81 C
100 29-03-2020 04:00:00 4.88333 C 69.8333 % -0.15 C
Sensor: Nr:Datum:Temp:Feuchte:Taupunkt:
Aussen-T/F 101 29-03-2020 05:00:00 4.575 C 70.8333 % -0.25 C
102 29-03-2020 06:00:00 3.8 C 71.7500 % -0.82 C
103 29-03-2020 07:00:00 4.04167 C 76.6667 % 0.32 C
104 29-03-2020 08:00:00 4.36667 C 76.2500 % 0.56 C
105 29-03-2020 09:00:00 4.64167 C 74.5833 % 0.52 C
106 29-03-2020 10:00:00 5.64167 C 69.6667 % 0.55 C
107 29-03-2020 11:00:00 6.44167 C 61.0000 % -0.52 C
108 29-03-2020 12:00:00 6.04167 C 64.5833 % -0.12 C
109 29-03-2020 13:00:00 6.68333 C 57.5000 % -1.1 C
110 29-03-2020 14:00:00 6.9 C 56.8333 % -1.05 C
111 29-03-2020 15:00:00 7.1 C 57.4167 % -0.73 C
112 29-03-2020 16:00:00 6.90833 C 57.1667 % -0.97 C
113 29-03-2020 17:00:00 6.89167 C 61.6667 % 0.05 C
114 29-03-2020 18:00:00 6.06667 C 69.6667 % 0.95 C
115 29-03-2020 19:00:00 4.35 C 83.5000 % 1.81 C
116 29-03-2020 20:00:00 3.88333 C 86.0833 % 1.77 C
117 29-03-2020 21:00:00 4.34167 C 77.8333 % 0.82 C
118 29-03-2020 22:00:00 4.26667 C 73.6667 % -0.01 C
119 29-03-2020 23:00:00 4.025 C 68.9167 % -1.15 C
120 30-03-2020 00:00:00 2.95 C 68.5000 % -2.26 C
121 30-03-2020 01:00:00 1.29167 C 73.8333 % -2.85 C
122 30-03-2020 02:00:00 -0.3 C 78.7500 % -3.53 C
123 30-03-2020 03:00:00 -1.20833 C 81.5000 % -3.96 C
124 30-03-2020 04:00:00 -1.74167 C 83.0833 % -4.23 C
125 30-03-2020 05:00:00 -2.05 C 81.5833 % -4.77 C
Sensor: Nr:Datum:Temp:Feuchte:Taupunkt:
Aussen-T/F 126 30-03-2020 06:00:00 -2.9 C 83.5000 % -5.3 C
127 30-03-2020 07:00:00 -3.05 C 83.7500 % -5.4 C
128 30-03-2020 08:00:00 -3.225 C 84.8333 % -5.41 C
129 30-03-2020 09:00:00 -2.225 C 81.0000 % -5.04 C
130 30-03-2020 10:00:00 -0.64167 C 74.7500 % -4.56 C
131 30-03-2020 11:00:00 2.7 C 50.7500 % -6.47 C
132 30-03-2020 12:00:00 4.41667 C 39.5000 % -8.14 C
133 30-03-2020 13:00:00 5.98333 C 36.7500 % -7.66 C
134 30-03-2020 14:00:00 7.20833 C 34.1667 % -7.52 C
135 30-03-2020 15:00:00 8.075 C 36.5833 % -5.86 C
136 30-03-2020 16:00:00 9.05833 C 38.5833 % -4.28 C
137 30-03-2020 17:00:00 9.51667 C 41.2500 % -2.98 C
138 30-03-2020 18:00:00 8.54167 C 48.0000 % -1.83 C
139 30-03-2020 19:00:00 7.58333 C 52.8333 % -1.41 C
140 30-03-2020 20:00:00 4.33333 C 66.1667 % -1.41 C
141 30-03-2020 21:00:00 3.80833 C 73.5833 % -0.47 C
142 30-03-2020 22:00:00 4.1 C 73.5833 % -0.18 C
143 30-03-2020 23:00:00 4.375 C 72.3333 % -0.15 C
144 31-03-2020 00:00:00 4.48333 C 72.7500 % 0.03 C
145 31-03-2020 01:00:00 4.60833 C 78.4167 % 1.19 C
146 31-03-2020 02:00:00 4.13333 C 83.0833 % 1.53 C
147 31-03-2020 03:00:00 3.14167 C 87.1667 % 1.22 C
148 31-03-2020 04:00:00 3.35 C 89.9167 % 1.86 C
149 31-03-2020 05:00:00 3.275 C 88.8333 % 1.61 C
150 31-03-2020 06:00:00 2.16667 C 90.5000 % 0.78 C
Sensor: Nr:Datum:Temp:Feuchte:Taupunkt:
Aussen-T/F 151 31-03-2020 07:00:00 2.65833 C 91.9167 % 1.48 C
152 31-03-2020 08:00:00 3.45833 C 89.9167 % 1.96 C
153 31-03-2020 09:00:00 4.51667 C 76.9167 % 0.83 C
154 31-03-2020 10:00:00 4.85 C 71.9167 % 0.22 C
155 31-03-2020 11:00:00 5.25 C 66.4167 % -0.49 C
156 31-03-2020 12:00:00 6.64167 C 56.2500 % -1.44 C
157 31-03-2020 13:00:00 7.34167 C 48.0000 % -2.93 C
158 31-03-2020 14:00:00 8.60833 C 43.1667 % -3.19 C
159 31-03-2020 15:00:00 9.04167 C 40.4167 % -3.68 C
160 31-03-2020 16:00:00 9.81667 C 38.0000 % -3.81 C
161 31-03-2020 17:00:00 10.84167 C 35.6667 % -3.74 C
162 31-03-2020 18:00:00 10.775 C 35.7500 % -3.77 C
163 31-03-2020 19:00:00 9.675 C 39.9167 % -3.28 C
164 31-03-2020 20:00:00 5.45 C 57.7500 % -2.2 C
165 31-03-2020 21:00:00 3.39167 C 64.7500 % -2.6 C
166 31-03-2020 22:00:00 2.40833 C 68.2500 % -2.83 C
167 31-03-2020 23:00:00 1.425 C 72.5833 % -2.95 C
168 01-04-2020 00:00:00 0.59167 C 75.0000 % -3.32 C
169 01-04-2020 01:00:00 -0.14167 C 78.0000 % -3.51 C
170 01-04-2020 02:00:00 -1.025 C 80.0833 % -4.02 C
171 01-04-2020 03:00:00 -1.64167 C 80.6667 % -4.52 C
172 01-04-2020 04:00:00 -2.175 C 80.9167 % -5 C
173 01-04-2020 05:00:00 -2.66667 C 82.5833 % -5.21 C
174 01-04-2020 06:00:00 -3.05 C 84.2500 % -5.33 C
175 01-04-2020 07:00:00 -3.325 C 85.3333 % -5.43 C
Sensor: Nr:Datum:Temp:Feuchte:Taupunkt:
Aussen-T/F 176 01-04-2020 08:00:00 -2.94167 C 86.2500 % -4.91 C
177 01-04-2020 09:00:00 -2.1 C 84.5833 % -4.34 C
178 01-04-2020 10:00:00 -0.075 C 82.3333 % -2.72 C
179 01-04-2020 11:00:00 3.90833 C 64.0833 % -2.25 C
180 01-04-2020 12:00:00 7.29167 C 45.8333 % -3.59 C
181 01-04-2020 13:00:00 8.80833 C 41.1667 % -3.65 C
182 01-04-2020 14:00:00 9.89167 C 37.9167 % -3.77 C
183 01-04-2020 15:00:00 10.65833 C 33.1667 % -4.86 C
184 01-04-2020 16:00:00 11.7 C 32.2500 % -4.32 C
185 01-04-2020 17:00:00 13.075 C 32.2500 % -3.12 C
186 01-04-2020 18:00:00 12.9 C 32.6667 % -3.1 C
187 01-04-2020 19:00:00 11.90833 C 34.5000 % -3.24 C
188 01-04-2020 20:00:00 8.54167 C 44.7500 % -2.77 C
189 01-04-2020 21:00:00 5.31667 C 59.0000 % -2.03 C
190 01-04-2020 22:00:00 3.75 C 65.2500 % -2.16 C
191 01-04-2020 23:00:00 2.44167 C 71.3333 % -2.2 C
192 02-04-2020 00:00:00 1.21667 C 74.7500 % -2.76 C
193 02-04-2020 01:00:00 0.4 C 78.5000 % -2.89 C
194 02-04-2020 02:00:00 -0.18333 C 80.5833 % -3.11 C
195 02-04-2020 03:00:00 -0.58333 C 82.1667 % -3.24 C
196 02-04-2020 04:00:00 -0.825 C 82.7500 % -3.38 C
197 02-04-2020 05:00:00 -1.56667 C 85.0000 % -3.75 C
198 02-04-2020 06:00:00 -1.725 C 86.1667 % -3.73 C
199 02-04-2020 07:00:00 -1.9 C 86.9167 % -3.78 C
200 02-04-2020 08:00:00 -1.35833 C 87.3333 % -3.19 C
Sensor: Nr:Datum:Temp:Feuchte:Taupunkt:
Aussen-T/F 201 02-04-2020 09:00:00 -0.64167 C 87.0000 % -2.53 C
202 02-04-2020 10:00:00 1.39167 C 85.4167 % -0.78 C
203 02-04-2020 11:00:00 5.44167 C 70.5833 % 0.53 C
204 02-04-2020 12:00:00 8.83333 C 55.9167 % 0.53 C
205 02-04-2020 13:00:00 10.78333 C 45.6667 % -0.45 C
206 02-04-2020 14:00:00 12.31667 C 42.8333 % 0.06 C
207 02-04-2020 15:00:00 13.25833 C 40.8333 % 0.25 C
208 02-04-2020 16:00:00 13.56667 C 42.1667 % 0.97 C
209 02-04-2020 17:00:00 13.58333 C 45.1667 % 1.94 C
210 02-04-2020 18:00:00 12.2 C 50.5000 % 2.24 C
211 02-04-2020 19:00:00 10.68333 C 51.8333 % 1.2 C
212 02-04-2020 20:00:00 8.79167 C 57.8333 % 0.96 C
213 02-04-2020 21:00:00 6.64167 C 66.8333 % 0.93 C
214 02-04-2020 22:00:00 5.86667 C 70.7500 % 0.97 C
215 02-04-2020 23:00:00 5.25833 C 74.3333 % 1.07 C
216 03-04-2020 00:00:00 3.475 C 80.3333 % 0.42 C
217 03-04-2020 01:00:00 3.025 C 82.0833 % 0.27 C
218 03-04-2020 02:00:00 3.1 C 82.7500 % 0.46 C
219 03-04-2020 03:00:00 4.2 C 81.1667 % 1.27 C
220 03-04-2020 04:00:00 5.28333 C 77.5833 % 1.69 C
221 03-04-2020 05:00:00 5.30833 C 78.6667 % 1.91 C
222 03-04-2020 06:00:00 5.68333 C 78.2500 % 2.2 C
223 03-04-2020 07:00:00 6.05833 C 77.0000 % 2.34 C
224 03-04-2020 08:00:00 6.39167 C 77.0833 % 2.68 C
225 03-04-2020 09:00:00 7.6 C 75.5833 % 3.57 C
Sensor: Nr:Datum:Temp:Feuchte:Taupunkt:
Aussen-T/F 226 03-04-2020 10:00:00 9.06667 C 73.4167 % 4.57 C
227 03-04-2020 11:00:00 10.85 C 66.6667 % 4.9 C
228 03-04-2020 12:00:00 11.35 C 61.5000 % 4.23 C
229 03-04-2020 13:00:00 11.575 C 59.7500 % 4.03 C
230 03-04-2020 14:00:00 11.66667 C 57.6667 % 3.61 C
231 03-04-2020 15:00:00 11.75 C 56.0833 % 3.29 C
232 03-04-2020 16:00:00 12.25 C 50.2500 % 2.21 C
233 03-04-2020 17:00:00 12.13333 C 49.2500 % 1.82 C
234 03-04-2020 18:00:00 11.51667 C 52.2500 % 2.08 C
235 03-04-2020 19:00:00 10.73333 C 55.4167 % 2.18 C
236 03-04-2020 20:00:00 9.88333 C 56.0833 % 1.55 C
237 03-04-2020 21:00:00 9.225 C 55.3333 % 0.75 C
238 03-04-2020 22:00:00 7.96667 C 60.9167 % 0.9 C
239 03-04-2020 23:00:00 6.8 C 63.8333 % 0.44 C
240 04-04-2020 00:00:00 5.65 C 67.0833 % 0.03 C
241 04-04-2020 01:00:00 4.69167 C 71.0833 % -0.09 C
242 04-04-2020 02:00:00 2.50833 C 79.8333 % -0.61 C
243 04-04-2020 03:00:00 1.41667 C 84.4167 % -0.92 C
244 04-04-2020 04:00:00 0.46667 C 86.8333 % -1.47 C
245 04-04-2020 05:00:00 -0.05 C 88.5833 % -1.71 C
246 04-04-2020 06:00:00 -0.41667 C 89.5000 % -1.93 C
247 04-04-2020 07:00:00 -0.76667 C 90.4167 % -2.14 C
248 04-04-2020 08:00:00 -0.50833 C 91.7500 % -1.68 C
249 04-04-2020 09:00:00 0.55833 C 91.1667 % -0.71 C
250 04-04-2020 10:00:00 2.78333 C 88.4167 % 1.06 C
Sensor: Nr:Datum:Temp:Feuchte:Taupunkt:
Aussen-T/F 251 04-04-2020 11:00:00 6.91667 C 73.4167 % 2.5 C
252 04-04-2020 12:00:00 9.94167 C 57.4167 % 1.93 C
253 04-04-2020 13:00:00 11.425 C 51.9167 % 1.91 C
254 04-04-2020 14:00:00 12.76667 C 47.1667 % 1.8 C
255 04-04-2020 15:00:00 13.55833 C 45.3333 % 1.97 C
256 04-04-2020 16:00:00 14.85833 C 42.5833 % 2.27 C
257 04-04-2020 17:00:00 15.90833 C 41.6667 % 2.91 C
258 04-04-2020 18:00:00 16.275 C 43.0833 % 3.72 C
259 04-04-2020 19:00:00 15.125 C 47.9167 % 4.18 C
260 04-04-2020 20:00:00 10.55833 C 61.0000 % 3.36 C
261 04-04-2020 21:00:00 8.21667 C 66.0833 % 2.27 C
262 04-04-2020 22:00:00 6.325 C 72.5000 % 1.75 C
263 04-04-2020 23:00:00 4.74167 C 76.1667 % 0.91 C
264 05-04-2020 00:00:00 3.59167 C 80.4167 % 0.54 C
265 05-04-2020 01:00:00 2.9 C 83.9167 % 0.46 C
266 05-04-2020 02:00:00 2.31667 C 86.3333 % 0.28 C
267 05-04-2020 03:00:00 1.81667 C 87.7500 % 0.01 C
268 05-04-2020 04:00:00 1.28333 C 89.6667 % -0.22 C
269 05-04-2020 05:00:00 0.73333 C 90.9167 % -0.58 C
270 05-04-2020 06:00:00 0.36667 C 92.2500 % -0.74 C
271 05-04-2020 07:00:00 0.325 C 93.0000 % -0.67 C
272 05-04-2020 08:00:00 0.925 C 93.9167 % 0.06 C
273 05-04-2020 09:00:00 2.525 C 94.4167 % 1.72 C
274 05-04-2020 10:00:00 5.60833 C 89.2500 % 3.98 C
275 05-04-2020 11:00:00 11.425 C 64.3333 % 4.94 C
Sensor: Nr:Datum:Temp:Feuchte:Taupunkt:
Aussen-T/F 276 05-04-2020 12:00:00 16.28333 C 39.8333 % 2.62 C
277 05-04-2020 13:00:00 17.225 C 37.1667 % 2.48 C
278 05-04-2020 14:00:00 18.21667 C 35.6667 % 2.78 C
279 05-04-2020 15:00:00 18.91667 C 33.6667 % 2.59 C
280 05-04-2020 16:00:00 19.7 C 32.5000 % 2.78 C
281 05-04-2020 17:00:00 20.9 C 30.7500 % 3.04 C
282 05-04-2020 18:00:00 20.60833 C 31.0000 % 2.9 C
283 05-04-2020 19:00:00 19.36667 C 35.3333 % 3.67 C
284 05-04-2020 20:00:00 13.875 C 50.0833 % 3.66 C
285 05-04-2020 21:00:00 11.36667 C 57.6667 % 3.33 C
286 05-04-2020 22:00:00 9.58333 C 63.0000 % 2.9 C
287 05-04-2020 23:00:00 8.01667 C 68.9167 % 2.67 C
288 06-04-2020 00:00:00 6.9 C 72.8333 % 2.37 C
289 06-04-2020 01:00:00 5.84167 C 77.4167 % 2.2 C
290 06-04-2020 02:00:00 4.94167 C 80.5833 % 1.89 C
291 06-04-2020 03:00:00 4.16667 C 82.7500 % 1.5 C
292 06-04-2020 04:00:00 3.625 C 84.4167 % 1.25 C
293 06-04-2020 05:00:00 2.99167 C 86.4167 % 0.95 C
294 06-04-2020 06:00:00 2.26667 C 88.4167 % 0.55 C
295 06-04-2020 07:00:00 2.375 C 90.1667 % 0.93 C
296 06-04-2020 08:00:00 3.25833 C 89.9167 % 1.77 C
297 06-04-2020 09:00:00 4.5 C 88.0000 % 2.69 C
298 06-04-2020 10:00:00 7.48333 C 81.3333 % 4.5 C
299 06-04-2020 11:00:00 14.03333 C 55.4167 % 5.25 C
300 06-04-2020 12:00:00 18.70833 C 36.5000 % 3.54 C
Sensor: Nr:Datum:Temp:Feuchte:Taupunkt:
Aussen-T/F 301 06-04-2020 13:00:00 20.18333 C 34.6667 % 4.11 C
302 06-04-2020 14:00:00 21.85833 C 31.5000 % 4.21 C
303 06-04-2020 15:00:00 22.68333 C 24.9167 % 1.62 C
304 06-04-2020 16:00:00 23.78333 C 25.6667 % 2.97 C
305 06-04-2020 17:00:00 23.825 C 27.0000 % 3.72 C
306 06-04-2020 18:00:00 23.45833 C 26.4167 % 3.1 C
307 06-04-2020 19:00:00 21.58333 C 32.3333 % 4.35 C
308 06-04-2020 20:00:00 16.28333 C 46.7500 % 4.89 C
309 06-04-2020 21:00:00 13.21667 C 56.1667 % 4.68 C
310 06-04-2020 22:00:00 11.06667 C 62.9167 % 4.28 C
311 06-04-2020 23:00:00 10.00833 C 65.4167 % 3.83 C
312 07-04-2020 00:00:00 9.56667 C 69.5833 % 4.29 C
313 07-04-2020 01:00:00 9.68333 C 71.3333 % 4.76 C
314 07-04-2020 02:00:00 9.24167 C 73.2500 % 4.71 C
315 07-04-2020 03:00:00 8.15 C 79.7500 % 4.87 C
316 07-04-2020 04:00:00 7.98333 C 80.9167 % 4.91 C
317 07-04-2020 05:00:00 6.725 C 84.4167 % 4.29 C
318 07-04-2020 06:00:00 5.975 C 87.2500 % 4.02 C
319 07-04-2020 07:00:00 5.65833 C 90.0000 % 4.15 C
320 07-04-2020 08:00:00 6.50833 C 89.6667 % 4.94 C
321 07-04-2020 09:00:00 7.83333 C 89.5000 % 6.22 C
322 07-04-2020 10:00:00 10.73333 C 85.2500 % 8.36 C
323 07-04-2020 11:00:00 14.89167 C 71.7500 % 9.84 C
324 07-04-2020 12:00:00 17.65833 C 61.3333 % 10.13 C
325 07-04-2020 13:00:00 19.4 C 54.7500 % 10.07 C
Sensor: Nr:Datum:Temp:Feuchte:Taupunkt:
Aussen-T/F 326 07-04-2020 14:00:00 20.875 C 49.4167 % 9.9 C
327 07-04-2020 15:00:00 21.86667 C 45.3333 % 9.52 C
328 07-04-2020 16:00:00 22.43333 C 42.1667 % 8.96 C
329 07-04-2020 17:00:00 23.35833 C 36.6667 % 7.72 C
330 07-04-2020 18:00:00 23.46667 C 36.5833 % 7.78 C
331 07-04-2020 19:00:00 21.05 C 45.5833 % 8.86 C
332 07-04-2020 20:00:00 16.79167 C 56.1667 % 8.02 C
333 07-04-2020 21:00:00 14.95833 C 64.0833 % 8.23 C
334 07-04-2020 22:00:00 13.575 C 70.2500 % 8.27 C
335 07-04-2020 23:00:00 12.94167 C 74.0000 % 8.42 C
336 08-04-2020 00:00:00 12.11667 C 77.8333 % 8.37 C
337 08-04-2020 01:00:00 10.99167 C 81.4167 % 7.94 C
338 08-04-2020 02:00:00 9.44167 C 85.0833 % 7.06 C
339 08-04-2020 03:00:00 7.95 C 88.9167 % 6.24 C
340 08-04-2020 04:00:00 7.175 C 91.3333 % 5.86 C
341 08-04-2020 05:00:00 6.48333 C 92.5000 % 5.36 C
342 08-04-2020 06:00:00 5.95 C 93.5000 % 4.98 C
343 08-04-2020 07:00:00 5.85833 C 94.4167 % 5.03 C
344 08-04-2020 08:00:00 6.64167 C 95.2500 % 5.94 C
345 08-04-2020 09:00:00 7.875 C 96.0000 % 7.28 C
346 08-04-2020 10:00:00 10.2 C 94.5833 % 9.37 C
347 08-04-2020 11:00:00 14.9 C 79.0000 % 11.29 C
348 08-04-2020 12:00:00 19.86667 C 51.9167 % 9.71 C
349 08-04-2020 13:00:00 21.76667 C 35.4167 % 5.81 C
350 08-04-2020 14:00:00 22.86667 C 28.7500 % 3.79 C
Sensor: Nr:Datum:Temp:Feuchte:Taupunkt:
Aussen-T/F 351 08-04-2020 15:00:00 23.1 C 30.0000 % 4.59 C
352 08-04-2020 16:00:00 24.20833 C 27.3333 % 4.22 C
353 08-04-2020 17:00:00 25.29167 C 25.0833 % 3.92 C
354 08-04-2020 18:00:00 25.375 C 26.4167 % 4.72 C
355 08-04-2020 19:00:00 22.95833 C 35.2500 % 6.79 C
356 08-04-2020 20:00:00 17.6 C 46.8333 % 6.11 C
357 08-04-2020 21:00:00 14.65 C 55.7500 % 5.91 C
358 08-04-2020 22:00:00 12.70833 C 62.6667 % 5.78 C
359 08-04-2020 23:00:00 11.65833 C 66.5833 % 5.66 C
360 09-04-2020 00:00:00 11.4 C 68.0833 % 5.73 C
361 09-04-2020 01:00:00 10.33333 C 73.6667 % 5.84 C
362 09-04-2020 02:00:00 9.40833 C 77.5000 % 5.68 C
363 09-04-2020 03:00:00 9.68333 C 77.7500 % 5.99 C
364 09-04-2020 04:00:00 9.98333 C 78.3333 % 6.39 C
365 09-04-2020 05:00:00 9.06667 C 80.6667 % 5.93 C
366 09-04-2020 06:00:00 7.90833 C 83.8333 % 5.35 C
367 09-04-2020 07:00:00 7.55833 C 86.4167 % 5.44 C
368 09-04-2020 08:00:00 7.91667 C 87.7500 % 6.01 C
369 09-04-2020 09:00:00 9.25833 C 87.0000 % 7.21 C
370 09-04-2020 10:00:00 11.775 C 81.3333 % 8.69 C
371 09-04-2020 11:00:00 16.34167 C 63.9167 % 9.5 C
372 09-04-2020 12:00:00 19.93333 C 51.9167 % 9.77 C
373 09-04-2020 13:00:00 21.825 C 43.4167 % 8.84 C
374 09-04-2020 14:00:00 23.09167 C 35.1667 % 6.88 C
375 09-04-2020 15:00:00 23.71667 C 34.1667 % 7.01 C
Sensor: Nr:Datum:Temp:Feuchte:Taupunkt:
Aussen-T/F 376 09-04-2020 16:00:00 24.3 C 33.7500 % 7.34 C
377 09-04-2020 17:00:00 24.7 C 33.0833 % 7.4 C
378 09-04-2020 18:00:00 24.00833 C 35.6667 % 7.89 C
379 09-04-2020 19:00:00 22.30833 C 40.5000 % 8.25 C
380 09-04-2020 20:00:00 18.3 C 53.8333 % 8.79 C
381 09-04-2020 21:00:00 15.94167 C 61.3333 % 8.52 C
382 09-04-2020 22:00:00 14.73333 C 65.5833 % 8.36 C
383 09-04-2020 23:00:00 13.50833 C 69.7500 % 8.1 C
384 10-04-2020 00:00:00 12.04167 C 74.9167 % 7.74 C
385 10-04-2020 01:00:00 10.34167 C 80.4167 % 7.12 C
386 10-04-2020 02:00:00 9.29167 C 83.2500 % 6.6 C
387 10-04-2020 03:00:00 8.3 C 85.8333 % 6.07 C
388 10-04-2020 04:00:00 7.45 C 88.0000 % 5.6 C
389 10-04-2020 05:00:00 6.94167 C 89.7500 % 5.38 C
390 10-04-2020 06:00:00 6.30833 C 91.0833 % 4.96 C
391 10-04-2020 07:00:00 6.05 C 92.5000 % 4.93 C
392 10-04-2020 08:00:00 6.525 C 93.5833 % 5.57 C
393 10-04-2020 09:00:00 7.91667 C 93.6667 % 6.96 C
394 10-04-2020 10:00:00 10.53333 C 88.1667 % 8.66 C
395 10-04-2020 11:00:00 15.09167 C 71.8333 % 10.05 C
396 10-04-2020 12:00:00 18.73333 C 51.9167 % 8.66 C
397 10-04-2020 13:00:00 20.01667 C 45.0833 % 7.76 C
398 10-04-2020 14:00:00 21.06667 C 40.8333 % 7.26 C
399 10-04-2020 15:00:00 21.975 C 35.7500 % 6.13 C
400 10-04-2020 16:00:00 23.04167 C 36.6667 % 7.44 C
Sensor: Nr:Datum:Temp:Feuchte:Taupunkt:
Aussen-T/F 401 10-04-2020 17:00:00 24 C 33.8333 % 7.11 C
402 10-04-2020 18:00:00 23.1 C 35.5833 % 7.06 C
403 10-04-2020 19:00:00 21.46667 C 38.4167 % 6.73 C
404 10-04-2020 20:00:00 17.7 C 51.1667 % 7.49 C
405 10-04-2020 21:00:00 14.525 C 60.5000 % 6.98 C
406 10-04-2020 22:00:00 14.05 C 63.7500 % 7.3 C
407 10-04-2020 23:00:00 12.80833 C 66.0000 % 6.62 C
408 11-04-2020 00:00:00 11.16667 C 71.5833 % 6.23 C
409 11-04-2020 01:00:00 10 C 73.0833 % 5.41 C
410 11-04-2020 02:00:00 8.975 C 74.0833 % 4.61 C
411 11-04-2020 03:00:00 8.5 C 71.2500 % 3.6 C
412 11-04-2020 04:00:00 7.86667 C 69.8333 % 2.71 C
413 11-04-2020 05:00:00 7.06667 C 70.2500 % 2.03 C
414 11-04-2020 06:00:00 5.80833 C 75.7500 % 1.87 C
415 11-04-2020 07:00:00 5.225 C 78.3333 % 1.77 C
416 11-04-2020 08:00:00 5.8 C 77.3333 % 2.15 C
417 11-04-2020 09:00:00 7.31667 C 73.5833 % 2.92 C
418 11-04-2020 10:00:00 10.08333 C 64.7500 % 3.76 C
419 11-04-2020 11:00:00 14.15833 C 50.1667 % 3.95 C
420 11-04-2020 12:00:00 18.01667 C 39.5833 % 4.08 C
421 11-04-2020 13:00:00 19.75833 C 36.0000 % 4.28 C
422 11-04-2020 14:00:00 21.23333 C 35.9167 % 5.55 C
423 11-04-2020 15:00:00 22.14167 C 35.0000 % 5.97 C
424 11-04-2020 16:00:00 23.375 C 34.6667 % 6.92 C
425 11-04-2020 17:00:00 24.39167 C 32.5000 % 6.87 C
Sensor: Nr:Datum:Temp:Feuchte:Taupunkt:
Aussen-T/F 426 11-04-2020 18:00:00 24.025 C 32.9167 % 6.73 C
427 11-04-2020 19:00:00 22.83333 C 36.8333 % 7.32 C
428 11-04-2020 20:00:00 17.31667 C 51.6667 % 7.28 C
429 11-04-2020 21:00:00 15.18333 C 56.6667 % 6.65 C
430 11-04-2020 22:00:00 14.175 C 61.6667 % 6.93 C
431 11-04-2020 23:00:00 13.15833 C 65.5833 % 6.86 C
432 12-04-2020 00:00:00 11.83333 C 70.2500 % 6.6 C
433 12-04-2020 01:00:00 11.01667 C 71.0000 % 5.97 C
434 12-04-2020 02:00:00 10.75 C 73.6667 % 6.24 C
435 12-04-2020 03:00:00 10.375 C 76.3333 % 6.4 C
436 12-04-2020 04:00:00 9.7 C 78.4167 % 6.13 C
437 12-04-2020 05:00:00 8.675 C 82.0833 % 5.79 C
438 12-04-2020 06:00:00 7.925 C 84.9167 % 5.55 C
439 12-04-2020 07:00:00 7.38333 C 87.4167 % 5.43 C
440 12-04-2020 08:00:00 8.00833 C 88.7500 % 6.27 C
441 12-04-2020 09:00:00 9.375 C 88.6667 % 7.6 C
442 12-04-2020 10:00:00 12.29167 C 82.5000 % 9.4 C
443 12-04-2020 11:00:00 16.63333 C 66.7500 % 10.43 C
444 12-04-2020 12:00:00 20.175 C 49.0000 % 9.13 C
445 12-04-2020 13:00:00 21.58333 C 36.4167 % 6.05 C
446 12-04-2020 14:00:00 22.41667 C 32.0833 % 4.96 C
447 12-04-2020 15:00:00 23.375 C 29.3333 % 4.51 C
448 12-04-2020 16:00:00 23.85 C 29.3333 % 4.92 C
449 12-04-2020 17:00:00 24.33333 C 28.3333 % 4.84 C
450 12-04-2020 18:00:00 24.49167 C 27.0833 % 4.33 C
Sensor: Nr:Datum:Temp:Feuchte:Taupunkt:
Aussen-T/F 451 12-04-2020 19:00:00 22.625 C 32.5000 % 5.33 C
452 12-04-2020 20:00:00 17.7 C 45.9167 % 5.92 C
453 12-04-2020 21:00:00 14.60833 C 56.9167 % 6.17 C
454 12-04-2020 22:00:00 13.06667 C 61.4167 % 5.83 C
455 12-04-2020 23:00:00 11.45 C 66.5833 % 5.46 C
456 13-04-2020 00:00:00 10.64167 C 71.8333 % 5.78 C
457 13-04-2020 01:00:00 9.74167 C 75.3333 % 5.59 C
458 13-04-2020 02:00:00 9.38333 C 76.5833 % 5.48 C
459 13-04-2020 03:00:00 8.675 C 79.5833 % 5.35 C
460 13-04-2020 04:00:00 7.66667 C 83.5000 % 5.05 C
461 13-04-2020 05:00:00 7.55 C 85.9167 % 5.35 C
462 13-04-2020 06:00:00 7.31667 C 85.5833 % 5.06 C
463 13-04-2020 07:00:00 7.56667 C 87.3333 % 5.6 C
464 13-04-2020 08:00:00 9.325 C 85.8333 % 7.08 C
465 13-04-2020 09:00:00 11.49167 C 83.5833 % 8.81 C
466 13-04-2020 10:00:00 11.25 C 78.7500 % 7.7 C
467 13-04-2020 11:00:00 11.18333 C 73.9167 % 6.71 C
468 13-04-2020 12:00:00 10.36667 C 76.0000 % 6.33 C
469 13-04-2020 13:00:00 9.525 C 78.9167 % 6.05 C
470 13-04-2020 14:00:00 8.55833 C 82.6667 % 5.78 C
471 13-04-2020 15:00:00 10.56667 C 62.6667 % 3.75 C
472 13-04-2020 16:00:00 11.425 C 49.7500 % 1.31 C
473 13-04-2020 17:00:00 12.55 C 43.5000 % 0.48 C
474 13-04-2020 18:00:00 12.51667 C 40.1667 % -0.64 C
475 13-04-2020 19:00:00 10.925 C 42.2500 % -1.39 C
Sensor: Nr:Datum:Temp:Feuchte:Taupunkt:
Aussen-T/F 476 13-04-2020 20:00:00 9.14167 C 45.6667 % -1.95 C
477 13-04-2020 21:00:00 7.91667 C 48.4167 % -2.28 C
478 13-04-2020 22:00:00 6.05833 C 57.7500 % -1.63 C
479 13-04-2020 23:00:00 4.29167 C 65.5833 % -1.57 C
480 14-04-2020 00:00:00 4.05833 C 65.0000 % -1.91 C
481 14-04-2020 01:00:00 3.55 C 67.3333 % -1.92 C
482 14-04-2020 02:00:00 2.05 C 74.5000 % -2 C
483 14-04-2020 03:00:00 1.48333 C 77.1667 % -2.07 C
484 14-04-2020 04:00:00 1.16667 C 78.2500 % -2.19 C
485 14-04-2020 05:00:00 0.775 C 81.0833 % -2.09 C
486 14-04-2020 06:00:00 0.41667 C 83.9167 % -1.98 C
487 14-04-2020 07:00:00 1.325 C 84.5833 % -0.98 C
488 14-04-2020 08:00:00 2.54167 C 82.7500 % -0.09 C
489 14-04-2020 09:00:00 4.325 C 77.2500 % 0.7 C
490 14-04-2020 10:00:00 6.44167 C 66.8333 % 0.74 C
491 14-04-2020 11:00:00 7.76667 C 55.7500 % -0.51 C
492 14-04-2020 12:00:00 8.19167 C 54.2500 % -0.48 C
493 14-04-2020 13:00:00 9.03333 C 52.2500 % -0.22 C
494 14-04-2020 14:00:00 9.88333 C 49.0833 % -0.29 C
495 14-04-2020 15:00:00 10.85 C 46.3333 % -0.2 C
496 14-04-2020 16:00:00 11.825 C 44.5833 % 0.16 C
497 14-04-2020 17:00:00 12.29167 C 42.6667 % -0.02 C
498 14-04-2020 18:00:00 12.79167 C 41.5000 % 0.05 C
499 14-04-2020 19:00:00 11.43333 C 44.5833 % -0.19 C
500 14-04-2020 20:00:00 8.83333 C 55.5833 % 0.45 C
Sensor: Nr:Datum:Temp:Feuchte:Taupunkt:
Aussen-T/F 501 14-04-2020 21:00:00 6.10833 C 67.0833 % 0.47 C
502 14-04-2020 22:00:00 5.36667 C 70.3333 % 0.41 C
503 14-04-2020 23:00:00 4.175 C 75.4167 % 0.23 C
504 15-04-2020 00:00:00 2.9 C 79.9167 % -0.22 C
505 15-04-2020 01:00:00 2.075 C 83.0000 % -0.5 C
506 15-04-2020 02:00:00 1.41667 C 85.3333 % -0.77 C
507 15-04-2020 03:00:00 0.85 C 87.4167 % -1 C
508 15-04-2020 04:00:00 0.53333 C 88.7500 % -1.1 C
509 15-04-2020 05:00:00 0.325 C 89.9167 % -1.13 C
510 15-04-2020 06:00:00 0.1 C 90.6667 % -1.24 C
511 15-04-2020 07:00:00 0.21667 C 91.7500 % -0.96 C
512 15-04-2020 08:00:00 1.48333 C 90.8333 % 0.15 C
513 15-04-2020 09:00:00 3.29167 C 84.6667 % 0.96 C
514 15-04-2020 10:00:00 5.81667 C 77.0000 % 2.1 C
515 15-04-2020 11:00:00 9.31667 C 63.6667 % 2.79 C
516 15-04-2020 12:00:00 12.63333 C 46.8333 % 1.58 C
517 15-04-2020 13:00:00 13.91667 C 43.4167 % 1.69 C
518 15-04-2020 14:00:00 15.54167 C 39.0833 % 1.69 C
519 15-04-2020 15:00:00 17.1 C 37.1667 % 2.37 C
520 15-04-2020 16:00:00 18.90833 C 34.0833 % 2.75 C
521 15-04-2020 17:00:00 20.475 C 31.4167 % 2.98 C
522 15-04-2020 18:00:00 20.275 C 32.5000 % 3.28 C
523 15-04-2020 19:00:00 19.18333 C 34.8333 % 3.3 C
524 15-04-2020 20:00:00 13.96667 C 49.4167 % 3.56 C
525 15-04-2020 21:00:00 11.1 C 59.1667 % 3.44 C
Sensor: Nr:Datum:Temp:Feuchte:Taupunkt:
Aussen-T/F 526 15-04-2020 22:00:00 9.10833 C 67.0833 % 3.33 C
527 15-04-2020 23:00:00 7.63333 C 70.9167 % 2.7 C
528 16-04-2020 00:00:00 6.51667 C 75.5833 % 2.52 C
529 16-04-2020 01:00:00 5.7 C 78.3333 % 2.23 C
530 16-04-2020 02:00:00 4.9 C 81.3333 % 1.98 C
531 16-04-2020 03:00:00 4.05833 C 84.3333 % 1.66 C
532 16-04-2020 04:00:00 3.61667 C 86.2500 % 1.54 C
533 16-04-2020 05:00:00 3.14167 C 87.9167 % 1.34 C
534 16-04-2020 06:00:00 2.625 C 89.2500 % 1.04 C
535 16-04-2020 07:00:00 2.58333 C 90.7500 % 1.23 C
536 16-04-2020 08:00:00 3.31667 C 91.5000 % 2.07 C
537 16-04-2020 09:00:00 4.80833 C 90.1667 % 3.34 C
538 16-04-2020 10:00:00 8.1 C 82.1667 % 5.25 C
539 16-04-2020 11:00:00 14.74167 C 58.1667 % 6.61 C
540 16-04-2020 12:00:00 18.85833 C 45.3333 % 6.79 C
541 16-04-2020 13:00:00 20.64167 C 40.0833 % 6.61 C
542 16-04-2020 14:00:00 21.975 C 36.0833 % 6.27 C
543 16-04-2020 15:00:00 23.25 C 35.2500 % 7.05 C
544 16-04-2020 16:00:00 24.3 C 33.4167 % 7.19 C
545 16-04-2020 17:00:00 24.23333 C 35.9167 % 8.19 C
546 16-04-2020 18:00:00 24.75 C 34.8333 % 8.19 C
547 16-04-2020 19:00:00 22.9 C 39.4167 % 8.38 C
548 16-04-2020 20:00:00 19.45833 C 46.5833 % 7.73 C
549 16-04-2020 21:00:00 16.75833 C 55.0833 % 7.7 C
550 16-04-2020 22:00:00 14.275 C 64.9167 % 7.77 C
Sensor: Nr:Datum:Temp:Feuchte:Taupunkt:
Aussen-T/F 551 16-04-2020 23:00:00 12.48333 C 72.1667 % 7.61 C
552 17-04-2020 00:00:00 11.40833 C 75.9167 % 7.32 C
553 17-04-2020 01:00:00 10.48333 C 79.6667 % 7.12 C
554 17-04-2020 02:00:00 9.85833 C 81.9167 % 6.92 C
555 17-04-2020 03:00:00 8.51667 C 86.6667 % 6.42 C
556 17-04-2020 04:00:00 8.41667 C 88.0833 % 6.56 C
557 17-04-2020 05:00:00 7.63333 C 88.7500 % 5.9 C
558 17-04-2020 06:00:00 6.81667 C 91.2500 % 5.49 C
559 17-04-2020 07:00:00 6.73333 C 92.7500 % 5.64 C
560 17-04-2020 08:00:00 7.375 C 93.9167 % 6.46 C
561 17-04-2020 09:00:00 8.95833 C 93.8333 % 8.02 C
562 17-04-2020 10:00:00 11.325 C 88.6667 % 9.52 C
563 17-04-2020 11:00:00 15.38333 C 72.5000 % 10.47 C
564 17-04-2020 12:00:00 18.95833 C 57.0833 % 10.28 C
565 17-04-2020 13:00:00 20.8 C 50.2500 % 10.08 C
566 17-04-2020 14:00:00 22.30833 C 47.5000 % 10.62 C
567 17-04-2020 15:00:00 23.375 C 44.0833 % 10.47 C
568 17-04-2020 16:00:00 24.18333 C 41.9167 % 10.44 C
569 17-04-2020 17:00:00 25.4 C 38.0833 % 10.09 C
570 17-04-2020 18:00:00 25.85 C 39.2500 % 10.94 C
571 17-04-2020 19:00:00 24.36667 C 47.1667 % 12.39 C
572 17-04-2020 20:00:00 19.575 C 59.0000 % 11.35 C
573 17-04-2020 21:00:00 17.50833 C 65.9167 % 11.07 C
574 17-04-2020 22:00:00 15.94167 C 69.7500 % 10.43 C
575 17-04-2020 23:00:00 14.55 C 74.7500 % 10.12 C
Sensor: Nr:Datum:Temp:Feuchte:Taupunkt:
Aussen-T/F 576 18-04-2020 00:00:00 13.10833 C 77.9167 % 9.35 C
577 18-04-2020 01:00:00 11.925 C 79.6667 % 8.53 C
578 18-04-2020 02:00:00 11.00833 C 83.0833 % 8.25 C
579 18-04-2020 03:00:00 9.95833 C 86.0000 % 7.73 C
580 18-04-2020 04:00:00 9.38333 C 88.5833 % 7.6 C
581 18-04-2020 05:00:00 9.05 C 89.3333 % 7.39 C
582 18-04-2020 06:00:00 8.84167 C 90.1667 % 7.32 C
583 18-04-2020 07:00:00 9.40833 C 91.9167 % 8.16 C
584 18-04-2020 08:00:00 10.325 C 91.7500 % 9.04 C
585 18-04-2020 09:00:00 12.14167 C 88.0833 % 10.23 C
586 18-04-2020 10:00:00 15.03333 C 77.7500 % 11.18 C
587 18-04-2020 11:00:00 16.93333 C 72.0833 % 11.87 C
588 18-04-2020 12:00:00 18.275 C 68.0833 % 12.29 C
589 18-04-2020 13:00:00 19.65833 C 61.9167 % 12.16 C
590 18-04-2020 14:00:00 20.63333 C 60.0000 % 12.6 C
591 18-04-2020 15:00:00 21.25 C 58.2500 % 12.73 C
592 18-04-2020 16:00:00 19.825 C 66.5000 % 13.41 C
593 18-04-2020 17:00:00 18.4 C 77.4167 % 14.38 C
594 18-04-2020 18:00:00 17.45 C 80.0000 % 13.96 C
595 18-04-2020 19:00:00 17.74167 C 73.3333 % 12.91 C
596 18-04-2020 20:00:00 16.5 C 75.3333 % 12.12 C
597 18-04-2020 21:00:00 14.95833 C 82.5000 % 12.01 C
598 18-04-2020 22:00:00 14.10833 C 84.2500 % 11.49 C
599 18-04-2020 23:00:00 12.58333 C 88.0833 % 10.66 C
600 19-04-2020 00:00:00 11.13333 C 90.9167 % 9.71 C
Sensor: Nr:Datum:Temp:Feuchte:Taupunkt:
Aussen-T/F 601 19-04-2020 01:00:00 10.325 C 93.0833 % 9.26 C
602 19-04-2020 02:00:00 10.125 C 94.0833 % 9.22 C
603 19-04-2020 03:00:00 9.65833 C 94.0833 % 8.75 C
604 19-04-2020 04:00:00 9.5 C 95.4167 % 8.8 C
605 19-04-2020 05:00:00 9.89167 C 96.0000 % 9.28 C
606 19-04-2020 06:00:00 10.15833 C 96.0000 % 9.55 C
607 19-04-2020 07:00:00 10.40833 C 96.0000 % 9.8 C
608 19-04-2020 08:00:00 11.18333 C 96.0000 % 10.57 C
609 19-04-2020 09:00:00 12.53333 C 92.2500 % 11.31 C
610 19-04-2020 10:00:00 13.93333 C 85.2500 % 11.5 C
611 19-04-2020 11:00:00 14.25833 C 82.4167 % 11.31 C
612 19-04-2020 12:00:00 14.40833 C 80.5000 % 11.1 C
613 19-04-2020 13:00:00 16.3 C 72.3333 % 11.32 C
614 19-04-2020 14:00:00 17.04167 C 68.4167 % 11.19 C
615 19-04-2020 15:00:00 16.43333 C 65.9167 % 10.05 C
616 19-04-2020 16:00:00 17.53333 C 60.8333 % 9.89 C
617 19-04-2020 17:00:00 17.4 C 58.0000 % 9.06 C
618 19-04-2020 18:00:00 17.28333 C 53.7500 % 7.83 C
619 19-04-2020 19:00:00 16.63333 C 51.6667 % 6.65 C
620 19-04-2020 20:00:00 13.9 C 61.8333 % 6.71 C
621 19-04-2020 21:00:00 11.775 C 67.4167 % 5.95 C
622 19-04-2020 22:00:00 11.125 C 64.6667 % 4.73 C
623 19-04-2020 23:00:00 10.64167 C 60.9167 % 3.42 C
624 20-04-2020 00:00:00 10.3 C 58.5000 % 2.53 C
625 20-04-2020 01:00:00 9.81667 C 57.9167 % 1.94 C
Sensor: Nr:Datum:Temp:Feuchte:Taupunkt:
Aussen-T/F 626 20-04-2020 02:00:00 8.10833 C 64.9167 % 1.92 C
627 20-04-2020 03:00:00 7.21667 C 68.0833 % 1.73 C
628 20-04-2020 04:00:00 6.60833 C 70.0000 % 1.54 C
629 20-04-2020 05:00:00 6.575 C 70.1667 % 1.54 C
630 20-04-2020 06:00:00 6.36667 C 71.0833 % 1.52 C
631 20-04-2020 07:00:00 6.90833 C 68.6667 % 1.56 C
632 20-04-2020 08:00:00 8.33333 C 63.3333 % 1.79 C
633 20-04-2020 09:00:00 9.20833 C 62.4167 % 2.41 C
634 20-04-2020 10:00:00 11.50833 C 54.4167 % 2.64 C
635 20-04-2020 11:00:00 14.16667 C 44.5833 % 2.29 C
636 20-04-2020 12:00:00 15.05833 C 40.0833 % 1.61 C
637 20-04-2020 13:00:00 16.025 C 37.9167 % 1.7 C
638 20-04-2020 14:00:00 17.26667 C 34.7500 % 1.58 C
639 20-04-2020 15:00:00 18.40833 C 32.0000 % 1.43 C
640 20-04-2020 16:00:00 19.5 C 30.5833 % 1.75 C
641 20-04-2020 17:00:00 19.83333 C 32.0833 % 2.71 C
642 20-04-2020 18:00:00 18.66667 C 36.5000 % 3.51 C
643 20-04-2020 19:00:00 17.61667 C 36.2500 % 2.48 C
644 20-04-2020 20:00:00 15.35 C 40.2500 % 1.93 C
645 20-04-2020 21:00:00 13.21667 C 44.4167 % 1.38 C
646 20-04-2020 22:00:00 12.40833 C 46.0833 % 1.15 C
647 20-04-2020 23:00:00 11.69167 C 46.1667 % 0.52 C
648 21-04-2020 00:00:00 10.975 C 48.3333 % 0.5 C
649 21-04-2020 01:00:00 9.35833 C 55.3333 % 0.87 C
650 21-04-2020 02:00:00 9.41667 C 54.8333 % 0.8 C
Sensor: Nr:Datum:Temp:Feuchte:Taupunkt:
Aussen-T/F 651 21-04-2020 03:00:00 9.54167 C 54.7500 % 0.9 C
652 21-04-2020 04:00:00 8.425 C 60.4167 % 1.22 C
653 21-04-2020 05:00:00 7.825 C 63.5833 % 1.36 C
654 21-04-2020 06:00:00 7.01667 C 67.7500 % 1.47 C
655 21-04-2020 07:00:00 6.96667 C 69.0833 % 1.7 C
656 21-04-2020 08:00:00 8.04167 C 66.0000 % 2.09 C
657 21-04-2020 09:00:00 10.08333 C 57.6667 % 2.13 C
658 21-04-2020 10:00:00 12.33333 C 49.0000 % 1.94 C
659 21-04-2020 11:00:00 14.51667 C 42.4167 % 1.91 C
660 21-04-2020 12:00:00 16.14167 C 37.8333 % 1.77 C
661 21-04-2020 13:00:00 17.4 C 35.1667 % 1.87 C
662 21-04-2020 14:00:00 18.95833 C 32.4167 % 2.09 C
663 21-04-2020 15:00:00 20.21667 C 30.6667 % 2.41 C
664 21-04-2020 16:00:00 20.80833 C 30.2500 % 2.73 C
665 21-04-2020 17:00:00 21.14167 C 30.6667 % 3.21 C
666 21-04-2020 18:00:00 20.84167 C 32.0833 % 3.59 C
667 21-04-2020 19:00:00 19.58333 C 34.9167 % 3.69 C
668 21-04-2020 20:00:00 17.18333 C 40.7500 % 3.75 C
669 21-04-2020 21:00:00 14.54167 C 47.9167 % 3.65 C
670 21-04-2020 22:00:00 13.075 C 53.0833 % 3.75 C
671 21-04-2020 23:00:00 11.90833 C 57.0000 % 3.67 C
672 22-04-2020 00:00:00 11.28333 C 58.3333 % 3.41 C
673 22-04-2020 01:00:00 10.53333 C 61.2500 % 3.4 C
674 22-04-2020 02:00:00 9.98333 C 63.0833 % 3.29 C
675 22-04-2020 03:00:00 9.25833 C 65.6667 % 3.17 C
Sensor: Nr:Datum:Temp:Feuchte:Taupunkt:
Aussen-T/F 676 22-04-2020 04:00:00 8.41667 C 68.0833 % 2.88 C
677 22-04-2020 05:00:00 7.49167 C 71.4167 % 2.67 C
678 22-04-2020 06:00:00 6.575 C 75.0000 % 2.47 C
679 22-04-2020 07:00:00 6.19167 C 79.3333 % 2.89 C
680 22-04-2020 08:00:00 7.35833 C 76.2500 % 3.46 C
681 22-04-2020 09:00:00 10.36667 C 62.5833 % 3.54 C
682 22-04-2020 10:00:00 13.09167 C 51.5833 % 3.36 C
683 22-04-2020 11:00:00 15.875 C 42.0000 % 3 C
684 22-04-2020 12:00:00 17.65 C 35.5833 % 2.25 C
685 22-04-2020 13:00:00 18.93333 C 34.1667 % 2.81 C
686 22-04-2020 14:00:00 20.18333 C 32.8333 % 3.34 C
687 22-04-2020 15:00:00 21.40833 C 30.6667 % 3.44 C
688 22-04-2020 16:00:00 22.575 C 28.7500 % 3.54 C
689 22-04-2020 17:00:00 22.65833 C 28.2500 % 3.36 C
690 22-04-2020 18:00:00 22.38333 C 28.1667 % 3.08 C
691 22-04-2020 19:00:00 21.275 C 30.0000 % 3.02 C
692 22-04-2020 20:00:00 18.38333 C 38.4167 % 3.98 C
693 22-04-2020 21:00:00 14.96667 C 47.0833 % 3.79 C
694 22-04-2020 22:00:00 13.81667 C 51.0000 % 3.87 C
695 22-04-2020 23:00:00 13.74167 C 51.4167 % 3.91 C
696 23-04-2020 00:00:00 12.85 C 54.5000 % 3.91 C
697 23-04-2020 01:00:00 12.08333 C 57.3333 % 3.92 C
698 23-04-2020 02:00:00 10.35833 C 64.0000 % 3.85 C
699 23-04-2020 03:00:00 9.51667 C 67.2500 % 3.76 C
700 23-04-2020 04:00:00 8.39167 C 71.3333 % 3.51 C
Sensor: Nr:Datum:Temp:Feuchte:Taupunkt:
Aussen-T/F 701 23-04-2020 05:00:00 6.975 C 77.1667 % 3.26 C
702 23-04-2020 06:00:00 6.3 C 79.7500 % 3.07 C
703 23-04-2020 07:00:00 5.95833 C 83.6667 % 3.41 C
704 23-04-2020 08:00:00 6.26667 C 86.7500 % 4.23 C
705 23-04-2020 09:00:00 8.35 C 83.0000 % 5.64 C
706 23-04-2020 10:00:00 11.61667 C 70.6667 % 6.48 C
707 23-04-2020 11:00:00 16.36667 C 49.8333 % 5.88 C
708 23-04-2020 12:00:00 18.08333 C 43.5000 % 5.49 C
709 23-04-2020 13:00:00 19.425 C 35.1667 % 3.65 C
710 23-04-2020 14:00:00 20.66667 C 33.0000 % 3.84 C
711 23-04-2020 15:00:00 22 C 30.7500 % 3.99 C
712 23-04-2020 16:00:00 23.20833 C 29.1667 % 4.29 C
713 23-04-2020 17:00:00 24.35833 C 27.5833 % 4.48 C
714 23-04-2020 18:00:00 25.35833 C 26.3333 % 4.66 C
715 23-04-2020 19:00:00 22.41667 C 44.3333 % 9.68 C
716 23-04-2020 20:00:00 14.64167 C 67.0000 % 8.59 C
717 23-04-2020 21:00:00 12.975 C 65.0833 % 6.58 C
718 23-04-2020 22:00:00 11.525 C 67.8333 % 5.8 C
719 23-04-2020 23:00:00 10.15833 C 71.2500 % 5.19 C
720 24-04-2020 00:00:00 9.33333 C 73.5833 % 4.86 C
721 24-04-2020 01:00:00 8.5 C 77.0000 % 4.71 C
722 24-04-2020 02:00:00 7.70833 C 79.6667 % 4.42 C
723 24-04-2020 03:00:00 6.975 C 82.9167 % 4.28 C
724 24-04-2020 04:00:00 6.50833 C 85.1667 % 4.2 C
725 24-04-2020 05:00:00 6.41667 C 86.1667 % 4.28 C
Sensor: Nr:Datum:Temp:Feuchte:Taupunkt:
Aussen-T/F 726 24-04-2020 06:00:00 6.36667 C 87.0000 % 4.37 C
727 24-04-2020 07:00:00 6.59167 C 87.8333 % 4.72 C
728 24-04-2020 08:00:00 7.83333 C 86.0833 % 5.66 C
729 24-04-2020 09:00:00 10.66667 C 77.5833 % 6.92 C
730 24-04-2020 10:00:00 12.975 C 71.4167 % 7.93 C
731 24-04-2020 11:00:00 15.21667 C 64.5833 % 8.59 C
732 24-04-2020 12:00:00 17.58333 C 57.1667 % 9.02 C
733 24-04-2020 13:00:00 20.025 C 41.5000 % 6.56 C
734 24-04-2020 14:00:00 21.325 C 41.0833 % 7.58 C
735 24-04-2020 15:00:00 22.06667 C 37.7500 % 7 C
736 24-04-2020 16:00:00 22.84167 C 31.8333 % 5.22 C
737 24-04-2020 17:00:00 22.55 C 29.8333 % 4.04 C
738 24-04-2020 18:00:00 21.59167 C 35.2500 % 5.59 C
739 24-04-2020 19:00:00 20.31667 C 41.1667 % 6.7 C
740 24-04-2020 20:00:00 18.15833 C 47.9167 % 6.96 C
741 24-04-2020 21:00:00 15.80833 C 53.4167 % 6.37 C
742 24-04-2020 22:00:00 14.64167 C 55.7500 % 5.91 C
743 24-04-2020 23:00:00 13.10833 C 52.8333 % 3.71 C

Maximal/Minimal-Werte vom 25.03.2020 - 24.04.2020

Sensor Min Max Avg
Temp
(Aussen-T/F)
-3.4 °C
30-03-2020  07:55:00
26.2 °C
17-04-2020  18:05:00
10.36 °C
Feuchte
(Aussen-T/F)
22 %
25-03-2020  16:30:00
96 %
08-04-2020  08:30:00
63.57 %
Taupunkt
(Aussen-T/F)
-8.29 C
25-03-2020  16:00:00
14.38 C
18-04-2020  17:00:00
2.86 C

Die Daten stammen von einer Davis Vantage Pro 2 Wetter-Station und werden unter Linux mit der Software wview2wettercgi und aufbereitet. Alle Angaben erfolgen ohne Gewähr für ihre Vollständigkeit oder Richtigkeit.
Kontakt: Rainer Krienke krienke@uni-koblenz.de . Meine Webseiten an der Uni Koblenz oder privat.
Version: $Revision: 0.78 $